Aviation Digital Data Service (ADDS)

Output produced by TAFs form (2220 UTC 02 December 2016)
found at http://aviationweather.gov/adds/tafs/
 
KMTJ 021737Z 0218/0318 00000KT P6SM BKN090 
     FM022000 33007KT P6SM BKN060 OVC090 
     FM030000 15004KT P6SM VCSH OVC040 
     FM030500 21004KT P6SM VCSH BKN070 
     FM030600 24004KT P6SM BKN070 
     FM031000 VRB03KT P6SM SCT045